sensor_id;sensor_type;location;lat;lon;timestamp;P1;durP1;ratioP1;P2;durP2;ratioP2
466;SDS011;72290;48.808;9.222;2023-10-09T05:02:30;36.30;;;11.13;;
466;SDS011;72290;48.808;9.222;2023-10-09T05:05:02;29.50;;;11.90;;
466;SDS011;72290;48.808;9.222;2023-10-09T05:07:48;43.07;;;11.13;;
466;SDS011;72290;48.808;9.222;2023-10-09T05:10:20;36.93;;;12.17;;
466;SDS011;72290;48.808;9.222;2023-10-09T05:12:50;31.20;;;11.77;;
466;SDS011;72290;48.808;9.222;2023-10-09T05:15:25;30.37;;;10.90;;
466;SDS011;72290;48.808;9.222;2023-10-09T05:17:54;35.13;;;11.93;;
466;SDS011;72290;48.808;9.222;2023-10-09T05:20:22;35.03;;;12.27;;
466;SDS011;72290;48.808;9.222;2023-10-09T05:22:48;33.20;;;11.70;;
466;SDS011;72290;48.808;9.222;2023-10-09T05:25:24;26.93;;;11.00;;
466;SDS011;72290;48.808;9.222;2023-10-09T05:28:09;44.50;;;12.67;;
466;SDS011;72290;48.808;9.222;2023-10-09T05:30:51;41.83;;;12.80;;
466;SDS011;72290;48.808;9.222;2023-10-09T05:33:28;35.43;;;12.57;;
466;SDS011;72290;48.808;9.222;2023-10-09T05:35:54;26.90;;;10.50;;
466;SDS011;72290;48.808;9.222;2023-10-09T05:38:39;33.37;;;10.67;;
466;SDS011;72290;48.808;9.222;2023-10-09T05:41:11;37.67;;;10.63;;
466;SDS011;72290;48.808;9.222;2023-10-09T05:43:56;41.07;;;13.00;;
466;SDS011;72290;48.808;9.222;2023-10-09T05:46:40;42.93;;;11.63;;
466;SDS011;72290;48.808;9.222;2023-10-09T05:49:26;36.70;;;10.07;;
466;SDS011;72290;48.808;9.222;2023-10-09T05:52:11;29.77;;;9.63;;
466;SDS011;72290;48.808;9.222;2023-10-09T05:54:55;25.83;;;9.20;;
466;SDS011;72290;48.808;9.222;2023-10-09T05:57:40;19.33;;;7.90;;
466;SDS011;72290;48.808;9.222;2023-10-09T06:00:25;28.23;;;9.47;;
466;SDS011;72290;48.808;9.222;2023-10-09T06:03:10;36.93;;;10.37;;
466;SDS011;72290;48.808;9.222;2023-10-09T06:08:24;35.83;;;11.30;;
466;SDS011;72290;48.808;9.222;2023-10-09T06:10:52;32.30;;;11.07;;
466;SDS011;72290;48.808;9.222;2023-10-09T06:13:36;39.03;;;10.97;;
466;SDS011;72290;48.808;9.222;2023-10-09T06:16:03;35.80;;;10.80;;
466;SDS011;72290;48.808;9.222;2023-10-09T06:18:45;35.77;;;10.80;;
466;SDS011;72290;48.808;9.222;2023-10-09T06:21:19;37.00;;;10.90;;
466;SDS011;72290;48.808;9.222;2023-10-09T06:24:04;49.17;;;10.37;;
466;SDS011;72290;48.808;9.222;2023-10-09T06:26:39;45.50;;;13.03;;
466;SDS011;72290;48.808;9.222;2023-10-09T06:29:16;41.43;;;11.00;;
466;SDS011;72290;48.808;9.222;2023-10-09T06:31:58;31.80;;;11.80;;
466;SDS011;72290;48.808;9.222;2023-10-09T06:34:41;42.30;;;11.83;;
466;SDS011;72290;48.808;9.222;2023-10-09T06:37:10;29.40;;;9.90;;
466;SDS011;72290;48.808;9.222;2023-10-09T06:39:48;38.73;;;11.93;;
466;SDS011;72290;48.808;9.222;2023-10-09T06:42:23;32.37;;;11.37;;
466;SDS011;72290;48.808;9.222;2023-10-09T06:45:02;40.70;;;11.80;;
466;SDS011;72290;48.808;9.222;2023-10-09T06:47:36;31.23;;;12.00;;
466;SDS011;72290;48.808;9.222;2023-10-09T06:50:21;30.50;;;12.50;;
466;SDS011;72290;48.808;9.222;2023-10-09T06:52:48;52.23;;;12.20;;
466;SDS011;72290;48.808;9.222;2023-10-09T06:55:43;40.60;;;13.10;;
466;SDS011;72290;48.808;9.222;2023-10-09T06:58:16;43.67;;;11.73;;
466;SDS011;72290;48.808;9.222;2023-10-09T07:00:51;39.80;;;11.00;;
466;SDS011;72290;48.808;9.222;2023-10-09T07:03:26;30.43;;;9.73;;
466;SDS011;72290;48.808;9.222;2023-10-09T07:06:05;35.50;;;11.50;;
466;SDS011;72290;48.808;9.222;2023-10-09T07:08:35;41.67;;;11.83;;
466;SDS011;72290;48.808;9.222;2023-10-09T07:11:09;35.20;;;11.60;;
466;SDS011;72290;48.808;9.222;2023-10-09T07:14:07;32.97;;;12.57;;
466;SDS011;72290;48.808;9.222;2023-10-09T07:16:57;36.43;;;11.70;;
466;SDS011;72290;48.808;9.222;2023-10-09T07:19:25;29.90;;;11.77;;
466;SDS011;72290;48.808;9.222;2023-10-09T07:22:15;34.10;;;10.50;;
466;SDS011;72290;48.808;9.222;2023-10-09T07:24:54;32.87;;;9.47;;
466;SDS011;72290;48.808;9.222;2023-10-09T07:27:27;36.70;;;10.20;;
466;SDS011;72290;48.808;9.222;2023-10-09T07:30:17;33.37;;;10.80;;
466;SDS011;72290;48.808;9.222;2023-10-09T07:35:39;30.73;;;10.03;;
466;SDS011;72290;48.808;9.222;2023-10-09T07:38:11;40.33;;;10.80;;
466;SDS011;72290;48.808;9.222;2023-10-09T07:40:39;49.53;;;11.60;;
466;SDS011;72290;48.808;9.222;2023-10-09T07:43:24;36.80;;;11.13;;
466;SDS011;72290;48.808;9.222;2023-10-09T07:46:09;32.20;;;11.57;;
466;SDS011;72290;48.808;9.222;2023-10-09T07:48:57;37.03;;;11.40;;
466;SDS011;72290;48.808;9.222;2023-10-09T07:51:25;51.13;;;12.20;;
466;SDS011;72290;48.808;9.222;2023-10-09T07:53:57;28.00;;;10.03;;
466;SDS011;72290;48.808;9.222;2023-10-09T07:56:36;51.67;;;11.00;;
466;SDS011;72290;48.808;9.222;2023-10-09T07:59:12;43.40;;;12.00;;
466;SDS011;72290;48.808;9.222;2023-10-09T08:01:42;36.00;;;11.80;;
466;SDS011;72290;48.808;9.222;2023-10-09T08:04:24;42.97;;;11.50;;
466;SDS011;72290;48.808;9.222;2023-10-09T08:07:09;45.20;;;12.43;;
466;SDS011;72290;48.808;9.222;2023-10-09T08:09:44;37.03;;;12.03;;
466;SDS011;72290;48.808;9.222;2023-10-09T08:12:36;43.93;;;11.87;;
466;SDS011;72290;48.808;9.222;2023-10-09T08:15:14;36.90;;;12.10;;
466;SDS011;72290;48.808;9.222;2023-10-09T08:17:51;36.80;;;11.83;;
466;SDS011;72290;48.808;9.222;2023-10-09T08:20:24;31.03;;;9.47;;
466;SDS011;72290;48.808;9.222;2023-10-09T08:22:51;49.93;;;11.37;;
466;SDS011;72290;48.808;9.222;2023-10-09T08:25:20;43.30;;;12.50;;
466;SDS011;72290;48.808;9.222;2023-10-09T08:28:00;41.23;;;12.53;;
466;SDS011;72290;48.808;9.222;2023-10-09T08:30:39;39.10;;;10.97;;
466;SDS011;72290;48.808;9.222;2023-10-09T08:33:18;38.43;;;10.77;;
466;SDS011;72290;48.808;9.222;2023-10-09T08:35:50;28.73;;;10.20;;
466;SDS011;72290;48.808;9.222;2023-10-09T08:38:16;37.90;;;10.40;;
466;SDS011;72290;48.808;9.222;2023-10-09T08:40:49;39.70;;;11.60;;
466;SDS011;72290;48.808;9.222;2023-10-09T08:43:17;44.50;;;12.30;;
466;SDS011;72290;48.808;9.222;2023-10-09T08:45:47;26.17;;;10.90;;
466;SDS011;72290;48.808;9.222;2023-10-09T08:48:17;31.67;;;10.30;;
466;SDS011;72290;48.808;9.222;2023-10-09T08:50:43;36.30;;;11.50;;
466;SDS011;72290;48.808;9.222;2023-10-09T08:53:13;34.67;;;9.90;;
466;SDS011;72290;48.808;9.222;2023-10-09T08:55:39;41.87;;;11.77;;
466;SDS011;72290;48.808;9.222;2023-10-09T08:58:06;33.67;;;11.10;;
466;SDS011;72290;48.808;9.222;2023-10-09T09:00:41;33.47;;;12.07;;
466;SDS011;72290;48.808;9.222;2023-10-09T09:03:18;40.90;;;11.73;;
466;SDS011;72290;48.808;9.222;2023-10-09T09:05:47;45.77;;;11.47;;
466;SDS011;72290;48.808;9.222;2023-10-09T09:08:23;33.60;;;11.10;;
466;SDS011;72290;48.808;9.222;2023-10-09T09:10:59;32.80;;;10.40;;
466;SDS011;72290;48.808;9.222;2023-10-09T09:13:41;26.97;;;10.27;;
466;SDS011;72290;48.808;9.222;2023-10-09T09:16:25;43.83;;;11.17;;
466;SDS011;72290;48.808;9.222;2023-10-09T09:21:43;44.60;;;12.90;;
466;SDS011;72290;48.808;9.222;2023-10-09T09:24:13;31.60;;;10.63;;
466;SDS011;72290;48.808;9.222;2023-10-09T09:26:45;37.73;;;10.80;;
466;SDS011;72290;48.808;9.222;2023-10-09T09:29:12;42.73;;;11.20;;
466;SDS011;72290;48.808;9.222;2023-10-09T09:31:39;39.73;;;10.13;;
466;SDS011;72290;48.808;9.222;2023-10-09T09:34:17;43.37;;;11.53;;
466;SDS011;72290;48.808;9.222;2023-10-09T09:36:49;38.37;;;11.57;;
466;SDS011;72290;48.808;9.222;2023-10-09T09:39:19;33.50;;;10.67;;
466;SDS011;72290;48.808;9.222;2023-10-09T09:41:51;35.83;;;10.13;;
466;SDS011;72290;48.808;9.222;2023-10-09T09:44:17;52.90;;;12.10;;
466;SDS011;72290;48.808;9.222;2023-10-09T09:46:46;41.93;;;12.20;;
466;SDS011;72290;48.808;9.222;2023-10-09T09:49:13;42.17;;;12.37;;
466;SDS011;72290;48.808;9.222;2023-10-09T09:51:42;44.20;;;11.60;;
466;SDS011;72290;48.808;9.222;2023-10-09T09:54:11;41.67;;;12.97;;
466;SDS011;72290;48.808;9.222;2023-10-09T09:56:40;45.73;;;12.57;;
466;SDS011;72290;48.808;9.222;2023-10-09T09:59:08;37.33;;;10.97;;
466;SDS011;72290;48.808;9.222;2023-10-09T10:01:38;36.70;;;11.20;;
466;SDS011;72290;48.808;9.222;2023-10-09T10:04:09;39.37;;;11.73;;
466;SDS011;72290;48.808;9.222;2023-10-09T10:06:39;37.27;;;13.27;;
466;SDS011;72290;48.808;9.222;2023-10-09T10:09:07;33.30;;;10.37;;
466;SDS011;72290;48.808;9.222;2023-10-09T10:11:43;41.77;;;10.60;;
466;SDS011;72290;48.808;9.222;2023-10-09T10:14:09;36.70;;;11.10;;
466;SDS011;72290;48.808;9.222;2023-10-09T10:16:59;39.80;;;12.33;;
466;SDS011;72290;48.808;9.222;2023-10-09T10:19:38;30.90;;;10.40;;
466;SDS011;72290;48.808;9.222;2023-10-09T10:22:24;35.37;;;11.37;;
466;SDS011;72290;48.808;9.222;2023-10-09T10:24:55;38.03;;;13.03;;
466;SDS011;72290;48.808;9.222;2023-10-09T10:27:23;44.60;;;12.67;;
466;SDS011;72290;48.808;9.222;2023-10-09T10:35:18;45.40;;;13.10;;
466;SDS011;72290;48.808;9.222;2023-10-09T10:38:00;35.40;;;11.53;;
466;SDS011;72290;48.808;9.222;2023-10-09T10:40:37;38.10;;;12.77;;
466;SDS011;72290;48.808;9.222;2023-10-09T10:43:03;30.83;;;10.93;;
466;SDS011;72290;48.808;9.222;2023-10-09T10:45:38;38.00;;;11.67;;
466;SDS011;72290;48.808;9.222;2023-10-09T10:48:10;40.53;;;11.57;;
466;SDS011;72290;48.808;9.222;2023-10-09T10:50:48;36.10;;;10.63;;
466;SDS011;72290;48.808;9.222;2023-10-09T10:53:14;43.90;;;12.33;;
466;SDS011;72290;48.808;9.222;2023-10-09T10:58:21;32.43;;;10.97;;
466;SDS011;72290;48.808;9.222;2023-10-09T11:01:00;36.83;;;11.20;;
466;SDS011;72290;48.808;9.222;2023-10-09T11:03:40;59.97;;;12.47;;
466;SDS011;72290;48.808;9.222;2023-10-09T11:06:24;42.37;;;13.20;;
466;SDS011;72290;48.808;9.222;2023-10-09T11:09:00;52.57;;;11.63;;
466;SDS011;72290;48.808;9.222;2023-10-09T11:11:34;41.60;;;11.40;;
466;SDS011;72290;48.808;9.222;2023-10-09T11:14:09;28.30;;;9.70;;
466;SDS011;72290;48.808;9.222;2023-10-09T11:16:39;27.87;;;9.80;;
466;SDS011;72290;48.808;9.222;2023-10-09T11:19:12;43.73;;;11.57;;
466;SDS011;72290;48.808;9.222;2023-10-09T11:21:54;42.13;;;11.40;;
466;SDS011;72290;48.808;9.222;2023-10-09T11:24:25;41.83;;;10.27;;
466;SDS011;72290;48.808;9.222;2023-10-09T11:26:51;28.67;;;10.23;;
466;SDS011;72290;48.808;9.222;2023-10-09T11:29:21;39.70;;;10.47;;
466;SDS011;72290;48.808;9.222;2023-10-09T11:32:06;33.33;;;8.80;;
466;SDS011;72290;48.808;9.222;2023-10-09T11:34:42;24.63;;;7.63;;
466;SDS011;72290;48.808;9.222;2023-10-09T11:37:17;24.00;;;7.80;;
466;SDS011;72290;48.808;9.222;2023-10-09T11:39:55;25.43;;;7.97;;
466;SDS011;72290;48.808;9.222;2023-10-09T11:42:22;29.47;;;8.50;;
466;SDS011;72290;48.808;9.222;2023-10-09T11:45:23;26.00;;;7.90;;
466;SDS011;72290;48.808;9.222;2023-10-09T11:47:53;29.20;;;8.20;;
466;SDS011;72290;48.808;9.222;2023-10-09T11:50:38;29.97;;;7.00;;
466;SDS011;72290;48.808;9.222;2023-10-09T11:53:08;34.63;;;8.90;;
466;SDS011;72290;48.808;9.222;2023-10-09T11:55:35;30.63;;;7.33;;
466;SDS011;72290;48.808;9.222;2023-10-09T11:58:01;33.70;;;7.60;;
466;SDS011;72290;48.808;9.222;2023-10-09T12:00:29;27.70;;;8.80;;
466;SDS011;72290;48.808;9.222;2023-10-09T12:02:57;30.73;;;8.40;;
466;SDS011;72290;48.808;9.222;2023-10-09T12:05:30;37.30;;;8.30;;
466;SDS011;72290;48.808;9.222;2023-10-09T12:07:56;28.60;;;10.10;;
466;SDS011;72290;48.808;9.222;2023-10-09T12:10:24;34.93;;;9.40;;
466;SDS011;72290;48.808;9.222;2023-10-09T12:12:51;53.33;;;10.20;;
466;SDS011;72290;48.808;9.222;2023-10-09T12:15:17;28.27;;;8.03;;
466;SDS011;72290;48.808;9.222;2023-10-09T12:17:44;41.93;;;10.20;;
466;SDS011;72290;48.808;9.222;2023-10-09T12:20:12;28.60;;;9.20;;
466;SDS011;72290;48.808;9.222;2023-10-09T12:22:54;53.57;;;9.87;;
466;SDS011;72290;48.808;9.222;2023-10-09T12:25:22;35.57;;;8.90;;
466;SDS011;72290;48.808;9.222;2023-10-09T12:27:48;37.93;;;8.07;;
466;SDS011;72290;48.808;9.222;2023-10-09T12:30:14;35.33;;;9.83;;
466;SDS011;72290;48.808;9.222;2023-10-09T12:32:40;34.87;;;9.43;;
466;SDS011;72290;48.808;9.222;2023-10-09T12:35:06;32.53;;;8.47;;
466;SDS011;72290;48.808;9.222;2023-10-09T12:37:42;35.53;;;8.83;;
466;SDS011;72290;48.808;9.222;2023-10-09T12:40:08;38.53;;;10.23;;
466;SDS011;72290;48.808;9.222;2023-10-09T12:42:35;31.23;;;8.93;;
466;SDS011;72290;48.808;9.222;2023-10-09T12:45:02;32.53;;;8.83;;
466;SDS011;72290;48.808;9.222;2023-10-09T12:47:33;31.47;;;7.33;;
466;SDS011;72290;48.808;9.222;2023-10-09T12:50:03;38.83;;;9.10;;
466;SDS011;72290;48.808;9.222;2023-10-09T12:52:35;34.40;;;7.63;;
466;SDS011;72290;48.808;9.222;2023-10-09T12:55:02;24.27;;;6.97;;
466;SDS011;72290;48.808;9.222;2023-10-09T12:57:33;25.40;;;6.87;;
466;SDS011;72290;48.808;9.222;2023-10-09T12:59:59;28.03;;;7.80;;
466;SDS011;72290;48.808;9.222;2023-10-09T13:02:25;23.17;;;7.10;;
466;SDS011;72290;48.808;9.222;2023-10-09T13:04:54;25.77;;;8.20;;
466;SDS011;72290;48.808;9.222;2023-10-09T13:07:20;24.77;;;8.07;;
466;SDS011;72290;48.808;9.222;2023-10-09T13:09:47;32.07;;;8.33;;
466;SDS011;72290;48.808;9.222;2023-10-09T13:12:33;34.07;;;9.70;;
466;SDS011;72290;48.808;9.222;2023-10-09T13:15:04;29.10;;;9.20;;
466;SDS011;72290;48.808;9.222;2023-10-09T13:17:37;32.13;;;8.00;;
466;SDS011;72290;48.808;9.222;2023-10-09T13:20:04;24.07;;;8.10;;
466;SDS011;72290;48.808;9.222;2023-10-09T13:22:39;19.40;;;7.37;;
466;SDS011;72290;48.808;9.222;2023-10-09T13:25:11;29.13;;;9.40;;
466;SDS011;72290;48.808;9.222;2023-10-09T13:27:44;43.03;;;9.07;;
466;SDS011;72290;48.808;9.222;2023-10-09T13:30:18;30.93;;;9.27;;
466;SDS011;72290;48.808;9.222;2023-10-09T13:32:49;39.53;;;9.63;;
466;SDS011;72290;48.808;9.222;2023-10-09T13:35:18;25.17;;;7.73;;
466;SDS011;72290;48.808;9.222;2023-10-09T13:37:47;23.23;;;8.57;;
466;SDS011;72290;48.808;9.222;2023-10-09T13:40:19;21.60;;;7.30;;
466;SDS011;72290;48.808;9.222;2023-10-09T13:42:52;26.27;;;9.77;;
466;SDS011;72290;48.808;9.222;2023-10-09T13:45:18;26.07;;;8.20;;
466;SDS011;72290;48.808;9.222;2023-10-09T13:47:51;22.83;;;8.40;;
466;SDS011;72290;48.808;9.222;2023-10-09T13:50:19;15.97;;;7.87;;
466;SDS011;72290;48.808;9.222;2023-10-09T13:52:47;15.60;;;7.10;;
466;SDS011;72290;48.808;9.222;2023-10-09T13:55:13;20.87;;;8.17;;
466;SDS011;72290;48.808;9.222;2023-10-09T13:57:42;19.87;;;7.97;;
466;SDS011;72290;48.808;9.222;2023-10-09T14:00:13;22.63;;;8.50;;
466;SDS011;72290;48.808;9.222;2023-10-09T14:02:57;22.80;;;9.23;;
466;SDS011;72290;48.808;9.222;2023-10-09T14:05:26;23.20;;;8.70;;
466;SDS011;72290;48.808;9.222;2023-10-09T14:07:52;15.77;;;7.40;;
466;SDS011;72290;48.808;9.222;2023-10-09T14:10:22;21.57;;;9.10;;
466;SDS011;72290;48.808;9.222;2023-10-09T14:12:51;22.70;;;8.70;;
466;SDS011;72290;48.808;9.222;2023-10-09T14:15:19;19.23;;;8.47;;
466;SDS011;72290;48.808;9.222;2023-10-09T14:17:45;18.30;;;8.00;;
466;SDS011;72290;48.808;9.222;2023-10-09T14:20:20;21.17;;;8.97;;
466;SDS011;72290;48.808;9.222;2023-10-09T14:22:57;19.50;;;8.87;;
466;SDS011;72290;48.808;9.222;2023-10-09T14:25:31;15.30;;;7.97;;
466;SDS011;72290;48.808;9.222;2023-10-09T14:27:57;26.80;;;9.87;;
466;SDS011;72290;48.808;9.222;2023-10-09T14:30:23;14.80;;;8.40;;
466;SDS011;72290;48.808;9.222;2023-10-09T14:32:56;16.20;;;7.87;;
466;SDS011;72290;48.808;9.222;2023-10-09T14:35:22;20.97;;;8.40;;
466;SDS011;72290;48.808;9.222;2023-10-09T14:37:55;18.73;;;7.87;;
466;SDS011;72290;48.808;9.222;2023-10-09T14:40:22;21.20;;;7.30;;
466;SDS011;72290;48.808;9.222;2023-10-09T14:42:55;18.87;;;8.20;;
466;SDS011;72290;48.808;9.222;2023-10-09T14:45:23;18.23;;;7.87;;
466;SDS011;72290;48.808;9.222;2023-10-09T14:47:51;17.73;;;7.97;;
466;SDS011;72290;48.808;9.222;2023-10-09T14:50:18;19.50;;;7.80;;
466;SDS011;72290;48.808;9.222;2023-10-09T14:52:47;24.50;;;7.60;;
466;SDS011;72290;48.808;9.222;2023-10-09T14:55:13;21.97;;;8.23;;
466;SDS011;72290;48.808;9.222;2023-10-09T14:57:45;19.00;;;7.80;;
466;SDS011;72290;48.808;9.222;2023-10-09T15:00:11;14.23;;;7.57;;
466;SDS011;72290;48.808;9.222;2023-10-09T15:02:39;17.47;;;7.73;;
466;SDS011;72290;48.808;9.222;2023-10-09T15:05:05;16.23;;;7.10;;
466;SDS011;72290;48.808;9.222;2023-10-09T15:07:35;24.33;;;7.10;;
466;SDS011;72290;48.808;9.222;2023-10-09T15:10:04;23.70;;;8.20;;
466;SDS011;72290;48.808;9.222;2023-10-09T15:12:30;16.07;;;6.63;;
466;SDS011;72290;48.808;9.222;2023-10-09T15:14:56;16.30;;;7.47;;
466;SDS011;72290;48.808;9.222;2023-10-09T15:17:22;15.03;;;6.60;;
466;SDS011;72290;48.808;9.222;2023-10-09T15:19:49;19.10;;;7.73;;
466;SDS011;72290;48.808;9.222;2023-10-09T15:22:21;19.77;;;8.10;;
466;SDS011;72290;48.808;9.222;2023-10-09T15:24:47;23.60;;;7.77;;
466;SDS011;72290;48.808;9.222;2023-10-09T15:27:13;16.93;;;7.70;;
466;SDS011;72290;48.808;9.222;2023-10-09T15:29:40;18.30;;;8.20;;
466;SDS011;72290;48.808;9.222;2023-10-09T15:32:09;17.50;;;7.73;;
466;SDS011;72290;48.808;9.222;2023-10-09T15:34:47;18.10;;;8.10;;
466;SDS011;72290;48.808;9.222;2023-10-09T15:37:13;17.93;;;8.00;;
466;SDS011;72290;48.808;9.222;2023-10-09T15:39:39;24.77;;;8.40;;
466;SDS011;72290;48.808;9.222;2023-10-09T15:42:06;23.03;;;8.17;;
466;SDS011;72290;48.808;9.222;2023-10-09T15:44:33;23.10;;;9.80;;
466;SDS011;72290;48.808;9.222;2023-10-09T15:47:01;14.17;;;6.63;;
466;SDS011;72290;48.808;9.222;2023-10-09T15:49:27;24.13;;;9.23;;
466;SDS011;72290;48.808;9.222;2023-10-09T15:51:55;17.90;;;8.17;;
466;SDS011;72290;48.808;9.222;2023-10-09T15:54:21;22.30;;;8.40;;
466;SDS011;72290;48.808;9.222;2023-10-09T15:56:47;21.60;;;8.53;;
466;SDS011;72290;48.808;9.222;2023-10-09T15:59:13;22.13;;;7.87;;
466;SDS011;72290;48.808;9.222;2023-10-09T16:01:39;24.57;;;11.57;;
466;SDS011;72290;48.808;9.222;2023-10-09T16:04:10;31.80;;;10.37;;
466;SDS011;72290;48.808;9.222;2023-10-09T16:06:37;28.70;;;9.67;;
466;SDS011;72290;48.808;9.222;2023-10-09T16:09:06;22.70;;;9.63;;
466;SDS011;72290;48.808;9.222;2023-10-09T16:11:46;31.90;;;10.90;;
466;SDS011;72290;48.808;9.222;2023-10-09T16:14:12;25.23;;;10.50;;
466;SDS011;72290;48.808;9.222;2023-10-09T16:16:40;34.93;;;15.10;;
466;SDS011;72290;48.808;9.222;2023-10-09T16:19:07;30.63;;;13.00;;
466;SDS011;72290;48.808;9.222;2023-10-09T16:21:34;22.37;;;10.73;;
466;SDS011;72290;48.808;9.222;2023-10-09T16:24:00;31.23;;;10.60;;
466;SDS011;72290;48.808;9.222;2023-10-09T16:26:26;28.00;;;10.23;;
466;SDS011;72290;48.808;9.222;2023-10-09T16:28:53;19.50;;;7.87;;
466;SDS011;72290;48.808;9.222;2023-10-09T16:31:20;19.23;;;7.83;;
466;SDS011;72290;48.808;9.222;2023-10-09T16:33:48;18.87;;;7.63;;
466;SDS011;72290;48.808;9.222;2023-10-09T16:36:14;30.17;;;8.33;;
466;SDS011;72290;48.808;9.222;2023-10-09T16:38:43;25.00;;;9.60;;
466;SDS011;72290;48.808;9.222;2023-10-09T16:41:13;17.27;;;8.53;;
466;SDS011;72290;48.808;9.222;2023-10-09T16:43:39;24.23;;;10.77;;
466;SDS011;72290;48.808;9.222;2023-10-09T16:46:08;20.03;;;9.30;;
466;SDS011;72290;48.808;9.222;2023-10-09T16:48:34;17.90;;;7.47;;
466;SDS011;72290;48.808;9.222;2023-10-09T16:51:04;22.83;;;8.67;;
466;SDS011;72290;48.808;9.222;2023-10-09T16:53:37;23.20;;;8.70;;
466;SDS011;72290;48.808;9.222;2023-10-09T16:56:04;28.63;;;10.13;;
466;SDS011;72290;48.808;9.222;2023-10-09T16:58:37;22.23;;;8.60;;
466;SDS011;72290;48.808;9.222;2023-10-09T17:01:03;21.47;;;8.30;;
466;SDS011;72290;48.808;9.222;2023-10-09T17:03:35;27.30;;;10.37;;
466;SDS011;72290;48.808;9.222;2023-10-09T17:06:04;22.80;;;10.27;;
466;SDS011;72290;48.808;9.222;2023-10-09T17:08:31;28.00;;;10.90;;
466;SDS011;72290;48.808;9.222;2023-10-09T17:10:59;32.57;;;11.10;;
466;SDS011;72290;48.808;9.222;2023-10-09T17:13:28;31.43;;;11.10;;
466;SDS011;72290;48.808;9.222;2023-10-09T17:15:54;19.50;;;9.30;;
466;SDS011;72290;48.808;9.222;2023-10-09T17:18:20;29.37;;;11.70;;
466;SDS011;72290;48.808;9.222;2023-10-09T17:20:47;31.30;;;10.77;;
466;SDS011;72290;48.808;9.222;2023-10-09T17:23:16;22.77;;;10.30;;
466;SDS011;72290;48.808;9.222;2023-10-09T17:25:42;27.60;;;10.60;;
466;SDS011;72290;48.808;9.222;2023-10-09T17:28:11;21.83;;;9.70;;
466;SDS011;72290;48.808;9.222;2023-10-09T17:30:46;24.20;;;9.77;;
466;SDS011;72290;48.808;9.222;2023-10-09T17:33:16;26.23;;;11.80;;
466;SDS011;72290;48.808;9.222;2023-10-09T17:35:47;25.80;;;10.10;;
466;SDS011;72290;48.808;9.222;2023-10-09T17:38:14;27.40;;;10.97;;
466;SDS011;72290;48.808;9.222;2023-10-09T17:40:47;39.93;;;13.03;;
466;SDS011;72290;48.808;9.222;2023-10-09T17:43:16;32.80;;;10.63;;
466;SDS011;72290;48.808;9.222;2023-10-09T17:45:42;30.10;;;10.93;;
466;SDS011;72290;48.808;9.222;2023-10-09T17:48:08;25.00;;;10.87;;
466;SDS011;72290;48.808;9.222;2023-10-09T17:50:35;31.53;;;12.03;;
466;SDS011;72290;48.808;9.222;2023-10-09T17:53:01;30.73;;;11.57;;
466;SDS011;72290;48.808;9.222;2023-10-09T17:55:29;28.20;;;11.17;;
466;SDS011;72290;48.808;9.222;2023-10-09T17:57:55;30.70;;;11.90;;
466;SDS011;72290;48.808;9.222;2023-10-09T18:00:21;32.90;;;11.57;;
466;SDS011;72290;48.808;9.222;2023-10-09T18:02:48;36.63;;;11.30;;
466;SDS011;72290;48.808;9.222;2023-10-09T18:05:14;31.43;;;12.37;;
466;SDS011;72290;48.808;9.222;2023-10-09T18:07:40;29.80;;;10.70;;
466;SDS011;72290;48.808;9.222;2023-10-09T18:10:08;38.33;;;12.93;;
466;SDS011;72290;48.808;9.222;2023-10-09T18:12:35;27.27;;;12.53;;
466;SDS011;72290;48.808;9.222;2023-10-09T18:15:01;25.93;;;11.97;;
466;SDS011;72290;48.808;9.222;2023-10-09T18:17:30;28.10;;;12.03;;
466;SDS011;72290;48.808;9.222;2023-10-09T18:20:00;26.53;;;11.37;;
466;SDS011;72290;48.808;9.222;2023-10-09T18:22:26;30.07;;;11.30;;
466;SDS011;72290;48.808;9.222;2023-10-09T18:24:53;27.30;;;10.73;;
466;SDS011;72290;48.808;9.222;2023-10-09T18:27:20;32.43;;;12.03;;
466;SDS011;72290;48.808;9.222;2023-10-09T18:29:47;28.53;;;12.30;;
466;SDS011;72290;48.808;9.222;2023-10-09T18:32:16;43.50;;;16.10;;
466;SDS011;72290;48.808;9.222;2023-10-09T18:34:43;36.07;;;14.00;;
466;SDS011;72290;48.808;9.222;2023-10-09T18:37:09;46.87;;;16.83;;
466;SDS011;72290;48.808;9.222;2023-10-09T18:39:36;43.77;;;16.60;;
466;SDS011;72290;48.808;9.222;2023-10-09T18:42:05;47.47;;;17.57;;
466;SDS011;72290;48.808;9.222;2023-10-09T18:44:32;38.47;;;18.03;;
466;SDS011;72290;48.808;9.222;2023-10-09T18:46:58;40.87;;;13.90;;
466;SDS011;72290;48.808;9.222;2023-10-09T18:49:24;36.67;;;15.67;;
466;SDS011;72290;48.808;9.222;2023-10-09T18:51:53;33.87;;;15.37;;
466;SDS011;72290;48.808;9.222;2023-10-09T18:54:20;35.87;;;13.40;;
466;SDS011;72290;48.808;9.222;2023-10-09T18:56:47;40.03;;;15.80;;
466;SDS011;72290;48.808;9.222;2023-10-09T18:59:13;36.07;;;14.80;;
466;SDS011;72290;48.808;9.222;2023-10-09T19:01:39;37.83;;;15.97;;
466;SDS011;72290;48.808;9.222;2023-10-09T19:04:05;33.50;;;16.27;;
466;SDS011;72290;48.808;9.222;2023-10-09T19:06:36;37.70;;;16.17;;
466;SDS011;72290;48.808;9.222;2023-10-09T19:09:05;28.47;;;13.93;;
466;SDS011;72290;48.808;9.222;2023-10-09T19:11:32;34.10;;;13.77;;
466;SDS011;72290;48.808;9.222;2023-10-09T19:13:58;33.80;;;13.77;;
466;SDS011;72290;48.808;9.222;2023-10-09T19:16:25;31.87;;;12.83;;
466;SDS011;72290;48.808;9.222;2023-10-09T19:18:52;31.73;;;12.10;;
466;SDS011;72290;48.808;9.222;2023-10-09T19:21:21;27.67;;;11.73;;
466;SDS011;72290;48.808;9.222;2023-10-09T19:23:47;29.37;;;11.90;;
466;SDS011;72290;48.808;9.222;2023-10-09T19:26:13;36.33;;;11.73;;
466;SDS011;72290;48.808;9.222;2023-10-09T19:28:40;29.57;;;11.97;;
466;SDS011;72290;48.808;9.222;2023-10-09T19:31:09;36.27;;;12.90;;
466;SDS011;72290;48.808;9.222;2023-10-09T19:33:35;31.30;;;11.93;;
466;SDS011;72290;48.808;9.222;2023-10-09T19:36:06;34.03;;;12.37;;
466;SDS011;72290;48.808;9.222;2023-10-09T19:38:46;42.37;;;12.10;;
466;SDS011;72290;48.808;9.222;2023-10-09T19:41:15;32.20;;;12.60;;
466;SDS011;72290;48.808;9.222;2023-10-09T19:43:44;27.70;;;12.00;;
466;SDS011;72290;48.808;9.222;2023-10-09T19:46:10;33.33;;;12.33;;
466;SDS011;72290;48.808;9.222;2023-10-09T19:48:40;25.33;;;11.00;;
466;SDS011;72290;48.808;9.222;2023-10-09T19:51:10;30.37;;;12.20;;
466;SDS011;72290;48.808;9.222;2023-10-09T19:53:37;39.40;;;11.07;;
466;SDS011;72290;48.808;9.222;2023-10-09T19:56:07;36.80;;;12.47;;
466;SDS011;72290;48.808;9.222;2023-10-09T19:58:36;39.00;;;14.73;;
466;SDS011;72290;48.808;9.222;2023-10-09T20:01:08;30.60;;;12.77;;
466;SDS011;72290;48.808;9.222;2023-10-09T20:03:34;37.10;;;13.10;;
466;SDS011;72290;48.808;9.222;2023-10-09T20:06:01;31.17;;;12.33;;
466;SDS011;72290;48.808;9.222;2023-10-09T20:08:28;30.27;;;12.80;;
466;SDS011;72290;48.808;9.222;2023-10-09T20:10:54;35.53;;;13.53;;
466;SDS011;72290;48.808;9.222;2023-10-09T20:13:21;34.73;;;14.13;;
466;SDS011;72290;48.808;9.222;2023-10-09T20:15:56;44.33;;;15.60;;
466;SDS011;72290;48.808;9.222;2023-10-09T20:18:22;40.90;;;14.33;;
466;SDS011;72290;48.808;9.222;2023-10-09T20:20:48;40.30;;;12.90;;
466;SDS011;72290;48.808;9.222;2023-10-09T20:23:13;38.20;;;12.77;;
466;SDS011;72290;48.808;9.222;2023-10-09T20:25:43;31.73;;;13.10;;
466;SDS011;72290;48.808;9.222;2023-10-09T20:28:12;30.67;;;12.93;;
466;SDS011;72290;48.808;9.222;2023-10-09T20:30:38;42.00;;;13.93;;
466;SDS011;72290;48.808;9.222;2023-10-09T20:33:05;31.57;;;13.07;;
466;SDS011;72290;48.808;9.222;2023-10-09T20:35:31;31.57;;;12.43;;